Delta Lindsey — WDF5519 — position and weather

sailwx.info

Track history (hours):
 
Tides and Currents Weather Stations Pressure Air Temp Water Temp Dewpoint Dewpoint Depression Visibility Wind Speed Wind Dir Waves Ship Positions

Delta Lindsey

Owner: Baydelta Navigation, Inc., San Francisco, CA. More information available from US FCC via Universal Licensing System and Coast Guard Vessel Documentation Center.

Last reported at 2017-Jan-20 03:33 UTC. Time now 2017-Jan-20 03:49 UTC.
Position N 47°59' W 122°13'.

MMSI: 233246442.

Date/timePositionNaut miles runAvg speedWind from/ knotsBaromVisibWave heightAir tempDewpointWater temp
2017-Jan-20 03:33N 47°59' W 122°13'0 0.0
2017-Jan-20 02:33N 47°59' W 122°13'0 0.0
2017-Jan-20 01:33N 47°59' W 122°13'0 0.0
2017-Jan-20 00:33N 47°59' W 122°13'1 0.8
2017-Jan-19 23:33N 47°59' W 122°14'9 9.4
2017-Jan-19 22:33N 47°53' W 122°26'9 8.6
2017-Jan-19 21:29N 47°59' W 122°37'28 8.2
2017-Jan-19 18:06N 48°26' W 122°45'5 9.5
2017-Jan-19 17:33N 48°31' W 122°42'4 3.4
2017-Jan-19 16:32N 48°31' W 122°37'0 0.0
2017-Jan-19 15:32N 48°31' W 122°37'0 0.0
2017-Jan-19 14:32N 48°31' W 122°37'0 0.0
2017-Jan-19 13:26N 48°31' W 122°37'0 0.0
2017-Jan-19 12:32N 48°31' W 122°37'0 0.0
2017-Jan-19 11:32N 48°31' W 122°37'0 0.1
2017-Jan-19 10:34N 48°31' W 122°37'9 8.5
2017-Jan-19 09:31N 48°25' W 122°47'1110.2
2017-Jan-19 08:24N 48°19' W 123°00'1 1.5
2017-Jan-19 07:31N 48°20' W 122°60'1212.3
2017-Jan-19 06:34N 48°27' W 122°45'8 8.0
2017-Jan-19 05:34N 48°32' W 122°36'1 1.3
2017-Jan-19 04:34N 48°31' W 122°34'2 1.8
2017-Jan-19 03:34N 48°31' W 122°37'0 0.0
2017-Jan-19 02:34N 48°31' W 122°37'3 3.3
2017-Jan-19 01:33N 48°31' W 122°42'9 8.9
2017-Jan-19 00:32N 48°23' W 122°49'9 9.3
2017-Jan-18 23:31N 48°18' W 123°01'9 9.0
2017-Jan-18 22:33N 48°13' W 123°12'9 8.7
2017-Jan-18 21:33N 48°08' W 123°23'1 1.2
2017-Jan-18 20:34N 48°08' W 123°24'2 1.6
2017-Jan-18 19:34N 48°08' W 123°27'0 0.0
2017-Jan-18 18:34N 48°08' W 123°27'7 6.8
2017-Jan-18 17:33N 48°09' W 123°17'10 9.9
2017-Jan-18 16:33N 48°11' W 123°02'23 7.6
2017-Jan-18 13:33N 47°58' W 122°34'8 8.1
2017-Jan-18 12:34N 47°52' W 122°27'10 9.7
2017-Jan-18 11:33N 47°42' W 122°26'7 6.6
2017-Jan-18 10:34N 47°36' W 122°21'1 1.0
2017-Jan-18 09:33N 47°36' W 122°23'2 1.8
2017-Jan-18 08:34N 47°38' W 122°23'0 0.0
2017-Jan-18 07:32N 47°38' W 122°23'0 0.0
2017-Jan-18 06:32N 47°38' W 122°23'0 0.0
2017-Jan-18 05:32N 47°38' W 122°23'0 0.0
2017-Jan-18 04:32N 47°38' W 122°23'0 0.0
2017-Jan-18 03:32N 47°38' W 122°23'0 0.0
2017-Jan-18 02:32N 47°38' W 122°23'0 0.0
2017-Jan-18 01:32N 47°38' W 122°23'0 0.0
2017-Jan-18 00:32N 47°38' W 122°23'1 0.7
2017-Jan-17 23:34N 47°37' W 122°23'2 2.2
2017-Jan-17 22:33N 47°35' W 122°21'0 0.0
2017-Jan-17 21:33N 47°35' W 122°21'0 0.0
2017-Jan-17 20:33N 47°35' W 122°21'0 0.0
2017-Jan-17 19:33N 47°35' W 122°21'0 0.0
2017-Jan-17 18:34N 47°35' W 122°21'3 2.9
2017-Jan-17 17:33N 47°38' W 122°23'0 0.0
2017-Jan-17 16:33N 47°38' W 122°23'3 2.9
2017-Jan-17 15:34N 47°35' W 122°22'2 2.4
2017-Jan-17 14:33N 47°33' W 122°20'5 5.2
2017-Jan-17 13:34N 47°38' W 122°23'3 3.1
2017-Jan-17 12:33N 47°35' W 122°21'0 0.1
2017-Jan-17 11:33N 47°35' W 122°21'0 0.2
2017-Jan-17 10:33N 47°35' W 122°21'0 0.0
2017-Jan-17 09:33N 47°35' W 122°21'0 0.0
2017-Jan-17 08:33N 47°35' W 122°21'0 0.0
2017-Jan-17 07:33N 47°35' W 122°21'0 0.0
2017-Jan-17 06:33N 47°35' W 122°21'0 0.1
2017-Jan-17 05:33N 47°35' W 122°21'2 2.0
2017-Jan-17 04:34N 47°33' W 122°20'1 1.0
2017-Jan-17 03:32N 47°34' W 122°21'0 0.0
2017-Jan-17 02:34N 47°34' W 122°21'1 1.0
2017-Jan-17 01:33N 47°33' W 122°20'5 4.9
2017-Jan-17 00:34N 47°38' W 122°23'0 0.3
2017-Jan-16 23:32N 47°38' W 122°23'0 0.0
2017-Jan-16 22:33N 47°38' W 122°23'0 0.0
2017-Jan-16 21:33N 47°38' W 122°23'0 0.0
2017-Jan-16 20:32N 47°38' W 122°23'0 0.0
2017-Jan-16 19:32N 47°38' W 122°23'0 0.0
2017-Jan-16 18:32N 47°38' W 122°23'0 0.0
2017-Jan-16 17:33N 47°38' W 122°23'0 0.0
2017-Jan-16 16:32N 47°38' W 122°23'0 0.0
2017-Jan-16 15:33N 47°38' W 122°23'0 0.0
2017-Jan-16 14:32N 47°38' W 122°23'3 3.3
2017-Jan-16 13:33N 47°35' W 122°21'0 0.1
2017-Jan-16 12:33N 47°35' W 122°21'1 0.7
2017-Jan-16 11:33N 47°36' W 122°21'2 1.5
2017-Jan-16 10:33N 47°36' W 122°23'2 1.6
2017-Jan-16 09:33N 47°36' W 122°20'0 0.0
2017-Jan-16 08:33N 47°36' W 122°20'0 0.1
2017-Jan-16 07:33N 47°36' W 122°21'7 7.3
2017-Jan-16 06:33N 47°29' W 122°24'9 8.5
2017-Jan-16 05:33N 47°20' W 122°25'4 0.8
2017-Jan-16 00:13N 47°16' W 122°24'1 1.1
2017-Jan-15 23:33N 47°16' W 122°23'3 1.9
2017-Jan-15 22:15N 47°17' W 122°26'1 1.3
2017-Jan-15 21:34N 47°18' W 122°27'5 5.3
2017-Jan-15 20:34N 47°23' W 122°23'10 9.7
2017-Jan-15 19:34N 47°32' W 122°25'6 5.9
2017-Jan-15 18:33N 47°38' W 122°23'0 0.0
2017-Jan-15 17:33N 47°38' W 122°23'0 0.0
2017-Jan-15 16:33N 47°38' W 122°23'0 0.0
2017-Jan-15 15:33N 47°38' W 122°23'0 0.0
2017-Jan-15 14:33N 47°38' W 122°23'0 0.0
2017-Jan-15 13:33N 47°38' W 122°23'0 0.0
2017-Jan-15 12:33N 47°38' W 122°23'0 0.0
2017-Jan-15 11:33N 47°38' W 122°23'0 0.0
2017-Jan-15 10:33N 47°38' W 122°23'0 0.0
2017-Jan-15 09:33N 47°38' W 122°23'3 3.0
2017-Jan-15 08:34N 47°35' W 122°21'1 0.8
2017-Jan-15 07:33N 47°36' W 122°22'2 2.4
2017-Jan-15 06:33N 47°38' W 122°23'0 0.0
2017-Jan-15 05:31N 47°38' W 122°23'0 0.0
2017-Jan-15 04:31N 47°38' W 122°23'0 0.0
2017-Jan-15 03:31N 47°38' W 122°23'0 0.0
2017-Jan-15 02:32N 47°38' W 122°23'0 0.0
2017-Jan-15 01:31N 47°38' W 122°23'0 0.0
2017-Jan-15 00:32N 47°38' W 122°23'0 0.0
2017-Jan-14 23:31N 47°38' W 122°23'0 0.0
2017-Jan-14 22:31N 47°38' W 122°23'0 0.0
2017-Jan-14 21:31N 47°38' W 122°23'0 0.0
2017-Jan-14 20:33N 47°38' W 122°23'0 0.0
2017-Jan-14 19:33N 47°38' W 122°23'0 0.0
2017-Jan-14 18:33N 47°38' W 122°23'0 0.0
2017-Jan-14 17:33N 47°38' W 122°23'0 0.0
2017-Jan-14 16:33N 47°38' W 122°23'1 0.7
2017-Jan-14 15:33N 47°37' W 122°22'1 1.0
2017-Jan-14 14:34N 47°37' W 122°24'1 0.9
2017-Jan-14 13:33N 47°37' W 122°22'0 0.3
2017-Jan-14 12:34N 47°37' W 122°22'2 2.4
2017-Jan-14 11:33N 47°35' W 122°21'3 2.9
2017-Jan-14 10:33N 47°38' W 122°23'0 0.0
2017-Jan-14 09:33N 47°38' W 122°23'0 0.0
2017-Jan-14 08:33N 47°38' W 122°23'0 0.0
2017-Jan-14 07:33N 47°38' W 122°23'0 0.0
2017-Jan-14 06:33N 47°38' W 122°23'0 0.0
2017-Jan-14 05:34N 47°38' W 122°23'0 0.0
2017-Jan-14 04:33N 47°38' W 122°23'0 0.0
2017-Jan-14 03:33N 47°38' W 122°23'0 0.0
2017-Jan-13 23:33N 47°38' W 122°23'0 0.0
2017-Jan-13 22:33N 47°38' W 122°23'0 0.0
2017-Jan-13 21:33N 47°38' W 122°23'0 0.0
2017-Jan-13 20:34N 47°38' W 122°23'0 0.0
2017-Jan-13 19:33N 47°38' W 122°23'0 0.0
2017-Jan-13 18:34N 47°38' W 122°23'0 0.0
2017-Jan-13 17:33N 47°38' W 122°23'3 3.4
2017-Jan-13 16:33N 47°35' W 122°21'2 2.1
2017-Jan-13 15:33N 47°37' W 122°22'1 1.3
2017-Jan-13 14:33N 47°38' W 122°23'0 0.0
2017-Jan-13 13:33N 47°38' W 122°23'0 0.0
2017-Jan-13 12:34N 47°38' W 122°23'0 0.0
2017-Jan-13 11:33N 47°38' W 122°23'0 0.0
2017-Jan-13 10:33N 47°38' W 122°23'0 0.0
2017-Jan-13 09:33N 47°38' W 122°23'0 0.0
2017-Jan-13 08:33N 47°38' W 122°23'3 3.0
2017-Jan-13 07:33N 47°35' W 122°21'2 1.8
2017-Jan-13 06:34N 47°37' W 122°22'1 1.2
2017-Jan-13 05:33N 47°38' W 122°23'0 0.0
2017-Jan-13 04:33N 47°38' W 122°23'0 0.0
2017-Jan-13 03:33N 47°38' W 122°23'0 0.0
2017-Jan-13 02:33N 47°38' W 122°23'0 0.0
2017-Jan-13 01:33N 47°38' W 122°23'0 0.0
2017-Jan-13 00:33N 47°38' W 122°23'0 0.0
2017-Jan-12 23:33N 47°38' W 122°23'0 0.0
2017-Jan-12 22:33N 47°38' W 122°23'0 0.0
2017-Jan-12 21:34N 47°38' W 122°23'0 0.0
2017-Jan-12 20:33N 47°38' W 122°23'0 0.0
2017-Jan-12 19:33N 47°38' W 122°23'0 0.0
2017-Jan-12 18:33N 47°38' W 122°23'0 0.0
2017-Jan-12 17:33N 47°38' W 122°23'0 0.0
2017-Jan-12 16:33N 47°38' W 122°23'0 0.0
2017-Jan-12 15:33N 47°38' W 122°23'3 2.6
2017-Jan-12 14:33N 47°36' W 122°21'1 1.3
2017-Jan-12 13:33N 47°37' W 122°22'1 1.3
2017-Jan-12 12:33N 47°38' W 122°23'0 0.0
2017-Jan-12 11:33N 47°38' W 122°23'6 5.6
2017-Jan-12 10:33N 47°33' W 122°25'1010.1
2017-Jan-12 09:34N 47°23' W 122°21'7 6.7
2017-Jan-12 08:32N 47°16' W 122°24'0 0.2
2017-Jan-12 07:28N 47°17' W 122°25'0 0.5
2017-Jan-12 06:33N 47°16' W 122°25'0 0.2
2017-Jan-12 05:28N 47°16' W 122°25'0 0.0
2017-Jan-12 04:30N 47°16' W 122°25'0 0.0
2017-Jan-12 03:29N 47°16' W 122°25'1 0.5
2017-Jan-12 02:17N 47°17' W 122°25'0 0.2
2017-Jan-12 01:32N 47°17' W 122°25'0 0.1
2017-Jan-11 22:29N 47°17' W 122°25'1 0.7
2017-Jan-11 21:32N 47°17' W 122°26'1 0.4
2017-Jan-11 19:32N 47°16' W 122°26'0 0.0
2017-Jan-11 18:33N 47°16' W 122°26'0 0.0
2017-Jan-11 17:33N 47°16' W 122°26'1 0.7
2017-Jan-11 16:33N 47°16' W 122°25'2 1.6
2017-Jan-11 15:33N 47°17' W 122°27'5 5.1
2017-Jan-11 14:33N 47°22' W 122°24'1010.2
2017-Jan-11 13:33N 47°32' W 122°25'3 3.2
2017-Jan-11 12:33N 47°33' W 122°20'1 1.2
2017-Jan-11 11:33N 47°34' W 122°21'2 1.7
2017-Jan-11 10:33N 47°36' W 122°22'2 2.4
2017-Jan-11 09:33N 47°38' W 122°23'0 0.0
2017-Jan-11 08:34N 47°38' W 122°23'0 0.0
2017-Jan-11 07:34N 47°38' W 122°23'0 0.0
2017-Jan-11 06:33N 47°38' W 122°23'0 0.0
2017-Jan-11 05:33N 47°38' W 122°23'0 0.0
2017-Jan-11 04:34N 47°38' W 122°23'0 0.0
2017-Jan-11 03:33N 47°38' W 122°23'0 0.0
2017-Jan-11 02:34N 47°38' W 122°23'0 0.0
2017-Jan-11 01:34N 47°38' W 122°23'3 3.4
2017-Jan-11 00:33N 47°35' W 122°21'0 0.0
2017-Jan-10 23:34N 47°35' W 122°21'1 0.8
2017-Jan-10 22:33N 47°36' W 122°21'1 0.7
2017-Jan-10 21:33N 47°35' W 122°22'2 2.2
2017-Jan-10 20:33N 47°33' W 122°20'0 0.1
2017-Jan-10 19:33N 47°33' W 122°20'3 2.6
2017-Jan-10 18:33N 47°36' W 122°21'1 1.4
2017-Jan-10 17:33N 47°36' W 122°23'2 1.7
2017-Jan-10 16:33N 47°35' W 122°21'1 1.3
2017-Jan-10 15:33N 47°36' W 122°21'1 1.3
2017-Jan-10 14:33N 47°35' W 122°21'0 0.2
2017-Jan-10 13:33N 47°35' W 122°21'2 1.6
2017-Jan-10 12:33N 47°37' W 122°21'4 3.7
2017-Jan-10 11:34N 47°33' W 122°20'1 1.3
2017-Jan-10 10:33N 47°34' W 122°21'2 1.9
2017-Jan-10 09:34N 47°36' W 122°22'2 2.1
2017-Jan-10 08:33N 47°38' W 122°23'0 0.0
2017-Jan-10 07:34N 47°38' W 122°23'0 0.0
2017-Jan-10 06:33N 47°38' W 122°23'0 0.0
2017-Jan-10 05:33N 47°38' W 122°23'0 0.0
2017-Jan-10 04:33N 47°38' W 122°23'  
Track history (hours):
 
Tides and Currents Weather Stations Pressure Air Temp Water Temp Dewpoint Dewpoint Depression Visibility Wind Speed Wind Dir Waves Ship Positions

Delta Lindsey

Owner: Baydelta Navigation, Inc., San Francisco, CA. More information available from US FCC via Universal Licensing System and Coast Guard Vessel Documentation Center.

Last reported at 2017-Jan-20 03:33 UTC. Time now 2017-Jan-20 03:49 UTC.
Position N 47°59' W 122°13'.

MMSI: 233246442.

Date/timePositionNaut miles runAvg speedWind from/ knotsBaromVisibWave heightAir tempDewpointWater temp
2017-Jan-20 03:33N 47°59' W 122°13'0 0.0
2017-Jan-20 02:33N 47°59' W 122°13'0 0.0
2017-Jan-20 01:33N 47°59' W 122°13'0 0.0
2017-Jan-20 00:33N 47°59' W 122°13'1 0.8
2017-Jan-19 23:33N 47°59' W 122°14'9 9.4
2017-Jan-19 22:33N 47°53' W 122°26'9 8.6
2017-Jan-19 21:29N 47°59' W 122°37'28 8.2
2017-Jan-19 18:06N 48°26' W 122°45'5 9.5
2017-Jan-19 17:33N 48°31' W 122°42'4 3.4
2017-Jan-19 16:32N 48°31' W 122°37'0 0.0
2017-Jan-19 15:32N 48°31' W 122°37'0 0.0
2017-Jan-19 14:32N 48°31' W 122°37'0 0.0
2017-Jan-19 13:26N 48°31' W 122°37'0 0.0
2017-Jan-19 12:32N 48°31' W 122°37'0 0.0
2017-Jan-19 11:32N 48°31' W 122°37'0 0.1
2017-Jan-19 10:34N 48°31' W 122°37'9 8.5
2017-Jan-19 09:31N 48°25' W 122°47'1110.2
2017-Jan-19 08:24N 48°19' W 123°00'1 1.5
2017-Jan-19 07:31N 48°20' W 122°60'1212.3
2017-Jan-19 06:34N 48°27' W 122°45'8 8.0
2017-Jan-19 05:34N 48°32' W 122°36'1 1.3
2017-Jan-19 04:34N 48°31' W 122°34'2 1.8
2017-Jan-19 03:34N 48°31' W 122°37'0 0.0
2017-Jan-19 02:34N 48°31' W 122°37'3 3.3
2017-Jan-19 01:33N 48°31' W 122°42'9 8.9
2017-Jan-19 00:32N 48°23' W 122°49'9 9.3
2017-Jan-18 23:31N 48°18' W 123°01'9 9.0
2017-Jan-18 22:33N 48°13' W 123°12'9 8.7
2017-Jan-18 21:33N 48°08' W 123°23'1 1.2
2017-Jan-18 20:34N 48°08' W 123°24'2 1.6
2017-Jan-18 19:34N 48°08' W 123°27'0 0.0
2017-Jan-18 18:34N 48°08' W 123°27'7 6.8
2017-Jan-18 17:33N 48°09' W 123°17'10 9.9
2017-Jan-18 16:33N 48°11' W 123°02'23 7.6
2017-Jan-18 13:33N 47°58' W 122°34'8 8.1
2017-Jan-18 12:34N 47°52' W 122°27'10 9.7
2017-Jan-18 11:33N 47°42' W 122°26'7 6.6
2017-Jan-18 10:34N 47°36' W 122°21'1 1.0
2017-Jan-18 09:33N 47°36' W 122°23'2 1.8
2017-Jan-18 08:34N 47°38' W 122°23'0 0.0
2017-Jan-18 07:32N 47°38' W 122°23'0 0.0
2017-Jan-18 06:32N 47°38' W 122°23'0 0.0
2017-Jan-18 05:32N 47°38' W 122°23'0 0.0
2017-Jan-18 04:32N 47°38' W 122°23'0 0.0
2017-Jan-18 03:32N 47°38' W 122°23'0 0.0
2017-Jan-18 02:32N 47°38' W 122°23'0 0.0
2017-Jan-18 01:32N 47°38' W 122°23'0 0.0
2017-Jan-18 00:32N 47°38' W 122°23'1 0.7
2017-Jan-17 23:34N 47°37' W 122°23'2 2.2
2017-Jan-17 22:33N 47°35' W 122°21'0 0.0
2017-Jan-17 21:33N 47°35' W 122°21'0 0.0
2017-Jan-17 20:33N 47°35' W 122°21'0 0.0
2017-Jan-17 19:33N 47°35' W 122°21'0 0.0
2017-Jan-17 18:34N 47°35' W 122°21'3 2.9
2017-Jan-17 17:33N 47°38' W 122°23'0 0.0
2017-Jan-17 16:33N 47°38' W 122°23'3 2.9
2017-Jan-17 15:34N 47°35' W 122°22'2 2.4
2017-Jan-17 14:33N 47°33' W 122°20'5 5.2
2017-Jan-17 13:34N 47°38' W 122°23'3 3.1
2017-Jan-17 12:33N 47°35' W 122°21'0 0.1
2017-Jan-17 11:33N 47°35' W 122°21'0 0.2
2017-Jan-17 10:33N 47°35' W 122°21'0 0.0
2017-Jan-17 09:33N 47°35' W 122°21'0 0.0
2017-Jan-17 08:33N 47°35' W 122°21'0 0.0
2017-Jan-17 07:33N 47°35' W 122°21'0 0.0
2017-Jan-17 06:33N 47°35' W 122°21'0 0.1
2017-Jan-17 05:33N 47°35' W 122°21'2 2.0
2017-Jan-17 04:34N 47°33' W 122°20'1 1.0
2017-Jan-17 03:32N 47°34' W 122°21'0 0.0
2017-Jan-17 02:34N 47°34' W 122°21'1 1.0
2017-Jan-17 01:33N 47°33' W 122°20'5 4.9
2017-Jan-17 00:34N 47°38' W 122°23'0 0.3
2017-Jan-16 23:32N 47°38' W 122°23'0 0.0
2017-Jan-16 22:33N 47°38' W 122°23'0 0.0
2017-Jan-16 21:33N 47°38' W 122°23'0 0.0
2017-Jan-16 20:32N 47°38' W 122°23'0 0.0
2017-Jan-16 19:32N 47°38' W 122°23'0 0.0
2017-Jan-16 18:32N 47°38' W 122°23'0 0.0
2017-Jan-16 17:33N 47°38' W 122°23'0 0.0
2017-Jan-16 16:32N 47°38' W 122°23'0 0.0
2017-Jan-16 15:33N 47°38' W 122°23'0 0.0
2017-Jan-16 14:32N 47°38' W 122°23'3 3.3
2017-Jan-16 13:33N 47°35' W 122°21'0 0.1
2017-Jan-16 12:33N 47°35' W 122°21'1 0.7
2017-Jan-16 11:33N 47°36' W 122°21'2 1.5
2017-Jan-16 10:33N 47°36' W 122°23'2 1.6
2017-Jan-16 09:33N 47°36' W 122°20'0 0.0
2017-Jan-16 08:33N 47°36' W 122°20'0 0.1
2017-Jan-16 07:33N 47°36' W 122°21'7 7.3
2017-Jan-16 06:33N 47°29' W 122°24'9 8.5
2017-Jan-16 05:33N 47°20' W 122°25'4 0.8
2017-Jan-16 00:13N 47°16' W 122°24'1 1.1
2017-Jan-15 23:33N 47°16' W 122°23'3 1.9
2017-Jan-15 22:15N 47°17' W 122°26'1 1.3
2017-Jan-15 21:34N 47°18' W 122°27'5 5.3
2017-Jan-15 20:34N 47°23' W 122°23'10 9.7
2017-Jan-15 19:34N 47°32' W 122°25'6 5.9
2017-Jan-15 18:33N 47°38' W 122°23'0 0.0
2017-Jan-15 17:33N 47°38' W 122°23'0 0.0
2017-Jan-15 16:33N 47°38' W 122°23'0 0.0
2017-Jan-15 15:33N 47°38' W 122°23'0 0.0
2017-Jan-15 14:33N 47°38' W 122°23'0 0.0
2017-Jan-15 13:33N 47°38' W 122°23'0 0.0
2017-Jan-15 12:33N 47°38' W 122°23'0 0.0
2017-Jan-15 11:33N 47°38' W 122°23'0 0.0
2017-Jan-15 10:33N 47°38' W 122°23'0 0.0
2017-Jan-15 09:33N 47°38' W 122°23'3 3.0
2017-Jan-15 08:34N 47°35' W 122°21'1 0.8
2017-Jan-15 07:33N 47°36' W 122°22'2 2.4
2017-Jan-15 06:33N 47°38' W 122°23'0 0.0
2017-Jan-15 05:31N 47°38' W 122°23'0 0.0
2017-Jan-15 04:31N 47°38' W 122°23'0 0.0
2017-Jan-15 03:31N 47°38' W 122°23'0 0.0
2017-Jan-15 02:32N 47°38' W 122°23'0 0.0
2017-Jan-15 01:31N 47°38' W 122°23'0 0.0
2017-Jan-15 00:32N 47°38' W 122°23'0 0.0
2017-Jan-14 23:31N 47°38' W 122°23'0 0.0
2017-Jan-14 22:31N 47°38' W 122°23'0 0.0
2017-Jan-14 21:31N 47°38' W 122°23'0 0.0
2017-Jan-14 20:33N 47°38' W 122°23'0 0.0
2017-Jan-14 19:33N 47°38' W 122°23'0 0.0
2017-Jan-14 18:33N 47°38' W 122°23'0 0.0
2017-Jan-14 17:33N 47°38' W 122°23'0 0.0
2017-Jan-14 16:33N 47°38' W 122°23'1 0.7
2017-Jan-14 15:33N 47°37' W 122°22'1 1.0
2017-Jan-14 14:34N 47°37' W 122°24'1 0.9
2017-Jan-14 13:33N 47°37' W 122°22'0 0.3
2017-Jan-14 12:34N 47°37' W 122°22'2 2.4
2017-Jan-14 11:33N 47°35' W 122°21'3 2.9
2017-Jan-14 10:33N 47°38' W 122°23'0 0.0
2017-Jan-14 09:33N 47°38' W 122°23'0 0.0
2017-Jan-14 08:33N 47°38' W 122°23'0 0.0
2017-Jan-14 07:33N 47°38' W 122°23'0 0.0
2017-Jan-14 06:33N 47°38' W 122°23'0 0.0
2017-Jan-14 05:34N 47°38' W 122°23'0 0.0
2017-Jan-14 04:33N 47°38' W 122°23'0 0.0
2017-Jan-14 03:33N 47°38' W 122°23'0 0.0
2017-Jan-13 23:33N 47°38' W 122°23'0 0.0
2017-Jan-13 22:33N 47°38' W 122°23'0 0.0
2017-Jan-13 21:33N 47°38' W 122°23'0 0.0
2017-Jan-13 20:34N 47°38' W 122°23'0 0.0
2017-Jan-13 19:33N 47°38' W 122°23'0 0.0
2017-Jan-13 18:34N 47°38' W 122°23'0 0.0
2017-Jan-13 17:33N 47°38' W 122°23'3 3.4
2017-Jan-13 16:33N 47°35' W 122°21'2 2.1
2017-Jan-13 15:33N 47°37' W 122°22'1 1.3
2017-Jan-13 14:33N 47°38' W 122°23'0 0.0
2017-Jan-13 13:33N 47°38' W 122°23'0 0.0
2017-Jan-13 12:34N 47°38' W 122°23'0 0.0
2017-Jan-13 11:33N 47°38' W 122°23'0 0.0
2017-Jan-13 10:33N 47°38' W 122°23'0 0.0
2017-Jan-13 09:33N 47°38' W 122°23'0 0.0
2017-Jan-13 08:33N 47°38' W 122°23'3 3.0
2017-Jan-13 07:33N 47°35' W 122°21'2 1.8
2017-Jan-13 06:34N 47°37' W 122°22'1 1.2
2017-Jan-13 05:33N 47°38' W 122°23'0 0.0
2017-Jan-13 04:33N 47°38' W 122°23'0 0.0
2017-Jan-13 03:33N 47°38' W 122°23'0 0.0
2017-Jan-13 02:33N 47°38' W 122°23'0 0.0
2017-Jan-13 01:33N 47°38' W 122°23'0 0.0
2017-Jan-13 00:33N 47°38' W 122°23'0 0.0
2017-Jan-12 23:33N 47°38' W 122°23'0 0.0
2017-Jan-12 22:33N 47°38' W 122°23'0 0.0
2017-Jan-12 21:34N 47°38' W 122°23'0 0.0
2017-Jan-12 20:33N 47°38' W 122°23'0 0.0
2017-Jan-12 19:33N 47°38' W 122°23'0 0.0
2017-Jan-12 18:33N 47°38' W 122°23'0 0.0
2017-Jan-12 17:33N 47°38' W 122°23'0 0.0
2017-Jan-12 16:33N 47°38' W 122°23'0 0.0
2017-Jan-12 15:33N 47°38' W 122°23'3 2.6
2017-Jan-12 14:33N 47°36' W 122°21'1 1.3
2017-Jan-12 13:33N 47°37' W 122°22'1 1.3
2017-Jan-12 12:33N 47°38' W 122°23'0 0.0
2017-Jan-12 11:33N 47°38' W 122°23'6 5.6
2017-Jan-12 10:33N 47°33' W 122°25'1010.1
2017-Jan-12 09:34N 47°23' W 122°21'7 6.7
2017-Jan-12 08:32N 47°16' W 122°24'0 0.2
2017-Jan-12 07:28N 47°17' W 122°25'0 0.5
2017-Jan-12 06:33N 47°16' W 122°25'0 0.2
2017-Jan-12 05:28N 47°16' W 122°25'0 0.0
2017-Jan-12 04:30N 47°16' W 122°25'0 0.0
2017-Jan-12 03:29N 47°16' W 122°25'1 0.5
2017-Jan-12 02:17N 47°17' W 122°25'0 0.2
2017-Jan-12 01:32N 47°17' W 122°25'0 0.1
2017-Jan-11 22:29N 47°17' W 122°25'1 0.7
2017-Jan-11 21:32N 47°17' W 122°26'1 0.4
2017-Jan-11 19:32N 47°16' W 122°26'0 0.0
2017-Jan-11 18:33N 47°16' W 122°26'0 0.0
2017-Jan-11 17:33N 47°16' W 122°26'1 0.7
2017-Jan-11 16:33N 47°16' W 122°25'2 1.6
2017-Jan-11 15:33N 47°17' W 122°27'5 5.1
2017-Jan-11 14:33N 47°22' W 122°24'1010.2
2017-Jan-11 13:33N 47°32' W 122°25'3 3.2
2017-Jan-11 12:33N 47°33' W 122°20'1 1.2
2017-Jan-11 11:33N 47°34' W 122°21'2 1.7
2017-Jan-11 10:33N 47°36' W 122°22'2 2.4
2017-Jan-11 09:33N 47°38' W 122°23'0 0.0
2017-Jan-11 08:34N 47°38' W 122°23'0 0.0
2017-Jan-11 07:34N 47°38' W 122°23'0 0.0
2017-Jan-11 06:33N 47°38' W 122°23'0 0.0
2017-Jan-11 05:33N 47°38' W 122°23'0 0.0
2017-Jan-11 04:34N 47°38' W 122°23'0 0.0
2017-Jan-11 03:33N 47°38' W 122°23'0 0.0
2017-Jan-11 02:34N 47°38' W 122°23'0 0.0
2017-Jan-11 01:34N 47°38' W 122°23'3 3.4
2017-Jan-11 00:33N 47°35' W 122°21'0 0.0
2017-Jan-10 23:34N 47°35' W 122°21'1 0.8
2017-Jan-10 22:33N 47°36' W 122°21'1 0.7
2017-Jan-10 21:33N 47°35' W 122°22'2 2.2
2017-Jan-10 20:33N 47°33' W 122°20'0 0.1
2017-Jan-10 19:33N 47°33' W 122°20'3 2.6
2017-Jan-10 18:33N 47°36' W 122°21'1 1.4
2017-Jan-10 17:33N 47°36' W 122°23'2 1.7
2017-Jan-10 16:33N 47°35' W 122°21'1 1.3
2017-Jan-10 15:33N 47°36' W 122°21'1 1.3
2017-Jan-10 14:33N 47°35' W 122°21'0 0.2
2017-Jan-10 13:33N 47°35' W 122°21'2 1.6
2017-Jan-10 12:33N 47°37' W 122°21'4 3.7
2017-Jan-10 11:34N 47°33' W 122°20'1 1.3
2017-Jan-10 10:33N 47°34' W 122°21'2 1.9
2017-Jan-10 09:34N 47°36' W 122°22'2 2.1
2017-Jan-10 08:33N 47°38' W 122°23'0 0.0
2017-Jan-10 07:34N 47°38' W 122°23'0 0.0
2017-Jan-10 06:33N 47°38' W 122°23'0 0.0
2017-Jan-10 05:33N 47°38' W 122°23'0 0.0
2017-Jan-10 04:33N 47°38' W 122°23'  

Dump ship's entire track history